sensor_id;sensor_type;location;lat;lon;timestamp;P1;durP1;ratioP1;P2;durP2;ratioP2
9413;SDS011;4746;35.664;139.738;2023-03-04T00:00:43;8.03;;;7.23;;
9413;SDS011;4746;35.664;139.738;2023-03-04T00:03:12;7.40;;;6.70;;
9413;SDS011;4746;35.664;139.738;2023-03-04T00:05:42;7.90;;;7.10;;
9413;SDS011;4746;35.664;139.738;2023-03-04T00:08:11;7.97;;;7.13;;
9413;SDS011;4746;35.664;139.738;2023-03-04T00:10:39;9.47;;;7.17;;
9413;SDS011;4746;35.664;139.738;2023-03-04T00:13:09;8.27;;;7.40;;
9413;SDS011;4746;35.664;139.738;2023-03-04T00:15:37;8.90;;;7.97;;
9413;SDS011;4746;35.664;139.738;2023-03-04T00:18:04;7.77;;;6.97;;
9413;SDS011;4746;35.664;139.738;2023-03-04T00:20:32;9.63;;;7.67;;
9413;SDS011;4746;35.664;139.738;2023-03-04T00:22:59;7.70;;;7.00;;
9413;SDS011;4746;35.664;139.738;2023-03-04T00:25:27;9.10;;;8.20;;
9413;SDS011;4746;35.664;139.738;2023-03-04T00:27:56;8.77;;;7.90;;
9413;SDS011;4746;35.664;139.738;2023-03-04T00:30:24;10.30;;;8.03;;
9413;SDS011;4746;35.664;139.738;2023-03-04T00:32:52;8.73;;;7.93;;
9413;SDS011;4746;35.664;139.738;2023-03-04T00:35:19;8.90;;;8.00;;
9413;SDS011;4746;35.664;139.738;2023-03-04T00:37:47;8.63;;;7.80;;
9413;SDS011;4746;35.664;139.738;2023-03-04T00:40:14;8.90;;;7.97;;
9413;SDS011;4746;35.664;139.738;2023-03-04T00:42:42;9.37;;;8.13;;
9413;SDS011;4746;35.664;139.738;2023-03-04T00:45:10;8.30;;;7.57;;
9413;SDS011;4746;35.664;139.738;2023-03-04T00:47:37;8.43;;;7.63;;
9413;SDS011;4746;35.664;139.738;2023-03-04T00:50:05;9.73;;;8.33;;
9413;SDS011;4746;35.664;139.738;2023-03-04T00:52:33;9.23;;;8.43;;
9413;SDS011;4746;35.664;139.738;2023-03-04T00:55:02;8.20;;;7.40;;
9413;SDS011;4746;35.664;139.738;2023-03-04T00:57:32;7.63;;;6.93;;
9413;SDS011;4746;35.664;139.738;2023-03-04T01:00:00;8.63;;;7.70;;
9413;SDS011;4746;35.664;139.738;2023-03-04T01:02:29;11.13;;;7.87;;
9413;SDS011;4746;35.664;139.738;2023-03-04T01:04:56;9.47;;;8.47;;
9413;SDS011;4746;35.664;139.738;2023-03-04T01:07:24;9.43;;;8.10;;
9413;SDS011;4746;35.664;139.738;2023-03-04T01:09:51;9.53;;;7.70;;
9413;SDS011;4746;35.664;139.738;2023-03-04T01:12:19;9.33;;;8.47;;
9413;SDS011;4746;35.664;139.738;2023-03-04T01:14:47;9.20;;;8.40;;
9413;SDS011;4746;35.664;139.738;2023-03-04T01:17:14;9.37;;;8.50;;
9413;SDS011;4746;35.664;139.738;2023-03-04T01:19:42;8.37;;;7.60;;
9413;SDS011;4746;35.664;139.738;2023-03-04T01:22:10;8.70;;;7.63;;
9413;SDS011;4746;35.664;139.738;2023-03-04T01:24:39;9.33;;;8.30;;
9413;SDS011;4746;35.664;139.738;2023-03-04T01:27:07;8.90;;;8.03;;
9413;SDS011;4746;35.664;139.738;2023-03-04T01:29:35;8.43;;;7.73;;
9413;SDS011;4746;35.664;139.738;2023-03-04T01:32:03;9.20;;;8.07;;
9413;SDS011;4746;35.664;139.738;2023-03-04T01:34:31;8.47;;;7.67;;
9413;SDS011;4746;35.664;139.738;2023-03-04T01:36:58;9.07;;;8.23;;
9413;SDS011;4746;35.664;139.738;2023-03-04T01:39:26;8.53;;;7.83;;
9413;SDS011;4746;35.664;139.738;2023-03-04T01:41:54;8.53;;;7.70;;
9413;SDS011;4746;35.664;139.738;2023-03-04T01:44:22;8.47;;;7.27;;
9413;SDS011;4746;35.664;139.738;2023-03-04T01:46:50;7.23;;;6.63;;
9413;SDS011;4746;35.664;139.738;2023-03-04T01:49:20;8.93;;;7.30;;
9413;SDS011;4746;35.664;139.738;2023-03-04T01:51:52;7.93;;;7.13;;
9413;SDS011;4746;35.664;139.738;2023-03-04T01:54:21;6.53;;;5.97;;
9413;SDS011;4746;35.664;139.738;2023-03-04T01:56:49;7.27;;;6.23;;
9413;SDS011;4746;35.664;139.738;2023-03-04T01:59:19;6.83;;;5.73;;
9413;SDS011;4746;35.664;139.738;2023-03-04T02:01:56;8.20;;;6.47;;
9413;SDS011;4746;35.664;139.738;2023-03-04T02:04:27;8.50;;;6.17;;
9413;SDS011;4746;35.664;139.738;2023-03-04T02:06:58;6.90;;;6.30;;
9413;SDS011;4746;35.664;139.738;2023-03-04T02:09:29;8.63;;;6.00;;
9413;SDS011;4746;35.664;139.738;2023-03-04T02:11:59;7.17;;;6.10;;
9413;SDS011;4746;35.664;139.738;2023-03-04T02:14:27;7.03;;;6.23;;
9413;SDS011;4746;35.664;139.738;2023-03-04T02:16:55;7.13;;;6.10;;
9413;SDS011;4746;35.664;139.738;2023-03-04T02:19:36;7.00;;;6.27;;
9413;SDS011;4746;35.664;139.738;2023-03-04T02:22:18;6.67;;;5.97;;
9413;SDS011;4746;35.664;139.738;2023-03-04T02:24:51;8.10;;;6.80;;
9413;SDS011;4746;35.664;139.738;2023-03-04T02:27:28;6.43;;;5.83;;
9413;SDS011;4746;35.664;139.738;2023-03-04T02:29:56;8.10;;;5.50;;
9413;SDS011;4746;35.664;139.738;2023-03-04T02:32:23;6.30;;;5.57;;
9413;SDS011;4746;35.664;139.738;2023-03-04T02:34:51;9.00;;;7.10;;
9413;SDS011;4746;35.664;139.738;2023-03-04T02:37:18;7.63;;;6.27;;
9413;SDS011;4746;35.664;139.738;2023-03-04T02:39:47;8.10;;;6.20;;
9413;SDS011;4746;35.664;139.738;2023-03-04T02:42:16;7.83;;;6.57;;
9413;SDS011;4746;35.664;139.738;2023-03-04T02:44:44;7.93;;;6.90;;
9413;SDS011;4746;35.664;139.738;2023-03-04T02:47:16;6.67;;;6.00;;
9413;SDS011;4746;35.664;139.738;2023-03-04T02:49:44;6.53;;;5.93;;
9413;SDS011;4746;35.664;139.738;2023-03-04T02:52:22;9.07;;;6.37;;
9413;SDS011;4746;35.664;139.738;2023-03-04T02:54:51;6.07;;;5.43;;
9413;SDS011;4746;35.664;139.738;2023-03-04T02:57:19;7.13;;;5.73;;
9413;SDS011;4746;35.664;139.738;2023-03-04T02:59:46;10.80;;;6.10;;
9413;SDS011;4746;35.664;139.738;2023-03-04T03:02:14;8.93;;;6.03;;
9413;SDS011;4746;35.664;139.738;2023-03-04T03:04:41;7.70;;;6.00;;
9413;SDS011;4746;35.664;139.738;2023-03-04T03:07:09;9.00;;;6.30;;
9413;SDS011;4746;35.664;139.738;2023-03-04T03:09:36;9.37;;;5.70;;
9413;SDS011;4746;35.664;139.738;2023-03-04T03:12:04;7.37;;;4.57;;
9413;SDS011;4746;35.664;139.738;2023-03-04T03:14:32;6.67;;;4.77;;
9413;SDS011;4746;35.664;139.738;2023-03-04T03:17:00;4.90;;;4.40;;
9413;SDS011;4746;35.664;139.738;2023-03-04T03:19:27;4.00;;;3.60;;
9413;SDS011;4746;35.664;139.738;2023-03-04T03:21:55;4.00;;;3.40;;
9413;SDS011;4746;35.664;139.738;2023-03-04T03:24:22;4.93;;;4.43;;
9413;SDS011;4746;35.664;139.738;2023-03-04T03:26:50;7.67;;;5.27;;
9413;SDS011;4746;35.664;139.738;2023-03-04T03:29:17;6.87;;;4.70;;
9413;SDS011;4746;35.664;139.738;2023-03-04T03:31:45;5.77;;;5.20;;
9413;SDS011;4746;35.664;139.738;2023-03-04T03:34:15;6.00;;;5.40;;
9413;SDS011;4746;35.664;139.738;2023-03-04T03:36:42;6.07;;;5.20;;
9413;SDS011;4746;35.664;139.738;2023-03-04T03:39:10;5.70;;;5.13;;
9413;SDS011;4746;35.664;139.738;2023-03-04T03:41:40;5.53;;;5.03;;
9413;SDS011;4746;35.664;139.738;2023-03-04T03:44:08;6.73;;;5.63;;
9413;SDS011;4746;35.664;139.738;2023-03-04T03:46:35;7.77;;;5.63;;
9413;SDS011;4746;35.664;139.738;2023-03-04T03:49:03;6.67;;;5.17;;
9413;SDS011;4746;35.664;139.738;2023-03-04T03:51:30;6.03;;;5.20;;
9413;SDS011;4746;35.664;139.738;2023-03-04T03:54:00;6.20;;;5.47;;
9413;SDS011;4746;35.664;139.738;2023-03-04T03:56:27;5.53;;;5.03;;
9413;SDS011;4746;35.664;139.738;2023-03-04T03:58:55;7.20;;;5.00;;
9413;SDS011;4746;35.664;139.738;2023-03-04T04:01:22;8.07;;;5.43;;
9413;SDS011;4746;35.664;139.738;2023-03-04T04:03:50;4.07;;;3.77;;
9413;SDS011;4746;35.664;139.738;2023-03-04T04:06:18;5.10;;;4.37;;
9413;SDS011;4746;35.664;139.738;2023-03-04T04:08:46;8.07;;;4.90;;
9413;SDS011;4746;35.664;139.738;2023-03-04T04:11:13;5.97;;;3.93;;
9413;SDS011;4746;35.664;139.738;2023-03-04T04:13:41;4.63;;;3.73;;
9413;SDS011;4746;35.664;139.738;2023-03-04T04:16:09;5.20;;;3.67;;
9413;SDS011;4746;35.664;139.738;2023-03-04T04:18:37;4.37;;;3.33;;
9413;SDS011;4746;35.664;139.738;2023-03-04T04:21:05;5.67;;;3.67;;
9413;SDS011;4746;35.664;139.738;2023-03-04T04:23:32;3.47;;;3.17;;
9413;SDS011;4746;35.664;139.738;2023-03-04T04:26:00;4.77;;;2.83;;
9413;SDS011;4746;35.664;139.738;2023-03-04T04:28:28;6.27;;;3.53;;
9413;SDS011;4746;35.664;139.738;2023-03-04T04:30:55;3.85;;;2.75;;
9413;SDS011;4746;35.664;139.738;2023-03-04T04:33:23;3.60;;;2.60;;
9413;SDS011;4746;35.664;139.738;2023-03-04T04:35:51;3.90;;;2.78;;
9413;SDS011;4746;35.664;139.738;2023-03-04T04:38:18;5.17;;;3.00;;
9413;SDS011;4746;35.664;139.738;2023-03-04T04:40:46;5.00;;;2.75;;
9413;SDS011;4746;35.664;139.738;2023-03-04T04:43:13;5.55;;;2.70;;
9413;SDS011;4746;35.664;139.738;2023-03-04T04:45:41;5.63;;;2.88;;
9413;SDS011;4746;35.664;139.738;2023-03-04T04:48:08;4.25;;;3.15;;
9413;SDS011;4746;35.664;139.738;2023-03-04T04:50:36;3.58;;;3.00;;
9413;SDS011;4746;35.664;139.738;2023-03-04T04:53:03;3.63;;;3.00;;
9413;SDS011;4746;35.664;139.738;2023-03-04T04:55:32;3.97;;;2.63;;
9413;SDS011;4746;35.664;139.738;2023-03-04T04:58:00;3.58;;;2.80;;
9413;SDS011;4746;35.664;139.738;2023-03-04T05:00:30;6.68;;;2.60;;
9413;SDS011;4746;35.664;139.738;2023-03-04T05:02:57;5.95;;;2.63;;
9413;SDS011;4746;35.664;139.738;2023-03-04T05:05:26;4.38;;;3.05;;
9413;SDS011;4746;35.664;139.738;2023-03-04T05:07:53;3.85;;;2.60;;
9413;SDS011;4746;35.664;139.738;2023-03-04T05:10:21;5.38;;;2.88;;
9413;SDS011;4746;35.664;139.738;2023-03-04T05:12:49;6.50;;;2.85;;
9413;SDS011;4746;35.664;139.738;2023-03-04T05:15:16;4.80;;;2.60;;
9413;SDS011;4746;35.664;139.738;2023-03-04T05:17:44;6.30;;;2.47;;
9413;SDS011;4746;35.664;139.738;2023-03-04T05:20:12;4.93;;;2.55;;
9413;SDS011;4746;35.664;139.738;2023-03-04T05:22:39;2.92;;;2.72;;
9413;SDS011;4746;35.664;139.738;2023-03-04T05:25:10;3.15;;;2.85;;
9413;SDS011;4746;35.664;139.738;2023-03-04T05:27:37;4.13;;;3.03;;
9413;SDS011;4746;35.664;139.738;2023-03-04T05:30:05;5.60;;;3.00;;
9413;SDS011;4746;35.664;139.738;2023-03-04T05:32:33;5.07;;;3.15;;
9413;SDS011;4746;35.664;139.738;2023-03-04T05:35:01;3.75;;;3.08;;
9413;SDS011;4746;35.664;139.738;2023-03-04T05:37:29;4.85;;;3.22;;
9413;SDS011;4746;35.664;139.738;2023-03-04T05:39:56;3.55;;;2.70;;
9413;SDS011;4746;35.664;139.738;2023-03-04T05:42:24;4.50;;;2.85;;
9413;SDS011;4746;35.664;139.738;2023-03-04T05:44:51;4.75;;;2.92;;
9413;SDS011;4746;35.664;139.738;2023-03-04T05:47:19;4.03;;;2.70;;
9413;SDS011;4746;35.664;139.738;2023-03-04T05:49:46;3.47;;;3.17;;
9413;SDS011;4746;35.664;139.738;2023-03-04T05:52:14;6.03;;;2.60;;
9413;SDS011;4746;35.664;139.738;2023-03-04T05:54:41;3.47;;;2.67;;
9413;SDS011;4746;35.664;139.738;2023-03-04T05:57:09;4.82;;;2.85;;
9413;SDS011;4746;35.664;139.738;2023-03-04T05:59:36;3.78;;;2.60;;
9413;SDS011;4746;35.664;139.738;2023-03-04T06:02:04;4.53;;;3.03;;
9413;SDS011;4746;35.664;139.738;2023-03-04T06:04:33;4.72;;;3.33;;
9413;SDS011;4746;35.664;139.738;2023-03-04T06:07:00;3.17;;;2.80;;
9413;SDS011;4746;35.664;139.738;2023-03-04T06:09:28;5.95;;;3.13;;
9413;SDS011;4746;35.664;139.738;2023-03-04T06:11:56;3.72;;;2.90;;
9413;SDS011;4746;35.664;139.738;2023-03-04T06:14:23;4.82;;;2.75;;
9413;SDS011;4746;35.664;139.738;2023-03-04T06:16:51;3.22;;;2.92;;
9413;SDS011;4746;35.664;139.738;2023-03-04T06:19:18;4.00;;;2.85;;
9413;SDS011;4746;35.664;139.738;2023-03-04T06:21:47;3.85;;;2.67;;
9413;SDS011;4746;35.664;139.738;2023-03-04T06:24:15;5.65;;;4.13;;
9413;SDS011;4746;35.664;139.738;2023-03-04T06:26:44;7.30;;;5.55;;
9413;SDS011;4746;35.664;139.738;2023-03-04T06:29:11;13.82;;;7.43;;
9413;SDS011;4746;35.664;139.738;2023-03-04T06:31:40;9.68;;;8.38;;
9413;SDS011;4746;35.664;139.738;2023-03-04T06:34:07;9.90;;;7.93;;
9413;SDS011;4746;35.664;139.738;2023-03-04T06:36:35;14.38;;;9.40;;
9413;SDS011;4746;35.664;139.738;2023-03-04T06:39:03;11.18;;;9.20;;
9413;SDS011;4746;35.664;139.738;2023-03-04T06:41:32;9.40;;;8.40;;
9413;SDS011;4746;35.664;139.738;2023-03-04T06:44:00;13.30;;;8.50;;
9413;SDS011;4746;35.664;139.738;2023-03-04T06:46:28;8.82;;;7.93;;
9413;SDS011;4746;35.664;139.738;2023-03-04T06:48:55;8.55;;;7.70;;
9413;SDS011;4746;35.664;139.738;2023-03-04T06:51:23;8.32;;;7.53;;
9413;SDS011;4746;35.664;139.738;2023-03-04T06:53:51;9.23;;;7.68;;
9413;SDS011;4746;35.664;139.738;2023-03-04T06:56:19;9.55;;;8.50;;
9413;SDS011;4746;35.664;139.738;2023-03-04T06:58:46;9.85;;;8.85;;
9413;SDS011;4746;35.664;139.738;2023-03-04T07:01:16;10.80;;;8.90;;
9413;SDS011;4746;35.664;139.738;2023-03-04T07:03:51;9.43;;;8.43;;
9413;SDS011;4746;35.664;139.738;2023-03-04T07:06:21;10.48;;;8.52;;
9413;SDS011;4746;35.664;139.738;2023-03-04T07:08:52;9.98;;;8.95;;
9413;SDS011;4746;35.664;139.738;2023-03-04T07:11:21;16.02;;;9.32;;
9413;SDS011;4746;35.664;139.738;2023-03-04T07:13:50;10.05;;;8.95;;
9413;SDS011;4746;35.664;139.738;2023-03-04T07:16:19;12.75;;;8.90;;
9413;SDS011;4746;35.664;139.738;2023-03-04T07:18:48;11.40;;;8.43;;
9413;SDS011;4746;35.664;139.738;2023-03-04T07:21:16;12.48;;;8.18;;
9413;SDS011;4746;35.664;139.738;2023-03-04T07:23:44;11.13;;;7.97;;
9413;SDS011;4746;35.664;139.738;2023-03-04T07:26:12;11.77;;;7.80;;
9413;SDS011;4746;35.664;139.738;2023-03-04T07:28:41;11.55;;;8.20;;
9413;SDS011;4746;35.664;139.738;2023-03-04T07:31:10;12.27;;;7.20;;
9413;SDS011;4746;35.664;139.738;2023-03-04T07:33:45;10.93;;;7.95;;
9413;SDS011;4746;35.664;139.738;2023-03-04T07:36:12;11.25;;;7.50;;
9413;SDS011;4746;35.664;139.738;2023-03-04T07:38:44;12.27;;;7.53;;
9413;SDS011;4746;35.664;139.738;2023-03-04T07:41:14;15.07;;;8.55;;
9413;SDS011;4746;35.664;139.738;2023-03-04T07:43:43;10.20;;;8.02;;
9413;SDS011;4746;35.664;139.738;2023-03-04T07:46:11;9.00;;;8.07;;
9413;SDS011;4746;35.664;139.738;2023-03-04T07:48:39;9.15;;;8.27;;
9413;SDS011;4746;35.664;139.738;2023-03-04T07:51:09;10.02;;;8.85;;
9413;SDS011;4746;35.664;139.738;2023-03-04T07:53:46;10.00;;;8.32;;
9413;SDS011;4746;35.664;139.738;2023-03-04T07:56:20;11.38;;;8.98;;
9413;SDS011;4746;35.664;139.738;2023-03-04T07:58:51;9.68;;;8.68;;
9413;SDS011;4746;35.664;139.738;2023-03-04T08:01:20;10.50;;;8.88;;
9413;SDS011;4746;35.664;139.738;2023-03-04T08:03:57;9.93;;;8.25;;
9413;SDS011;4746;35.664;139.738;2023-03-04T08:06:25;11.37;;;8.53;;
9413;SDS011;4746;35.664;139.738;2023-03-04T08:08:58;11.07;;;8.53;;
9413;SDS011;4746;35.664;139.738;2023-03-04T08:11:30;10.30;;;8.20;;
9413;SDS011;4746;35.664;139.738;2023-03-04T08:14:00;8.93;;;8.17;;
9413;SDS011;4746;35.664;139.738;2023-03-04T08:16:28;13.80;;;9.17;;
9413;SDS011;4746;35.664;139.738;2023-03-04T08:18:58;9.50;;;8.63;;
9413;SDS011;4746;35.664;139.738;2023-03-04T08:21:28;9.77;;;8.30;;
9413;SDS011;4746;35.664;139.738;2023-03-04T08:23:57;10.30;;;9.27;;
9413;SDS011;4746;35.664;139.738;2023-03-04T08:26:33;10.03;;;9.07;;
9413;SDS011;4746;35.664;139.738;2023-03-04T08:29:06;9.83;;;8.93;;
9413;SDS011;4746;35.664;139.738;2023-03-04T08:31:36;13.43;;;9.27;;
9413;SDS011;4746;35.664;139.738;2023-03-04T08:34:04;11.63;;;9.73;;
9413;SDS011;4746;35.664;139.738;2023-03-04T08:36:36;12.23;;;9.47;;
9413;SDS011;4746;35.664;139.738;2023-03-04T08:39:04;11.23;;;10.00;;
9413;SDS011;4746;35.664;139.738;2023-03-04T08:41:32;12.37;;;10.53;;
9413;SDS011;4746;35.664;139.738;2023-03-04T08:44:00;10.87;;;9.77;;
9413;SDS011;4746;35.664;139.738;2023-03-04T08:46:28;14.80;;;10.37;;
9413;SDS011;4746;35.664;139.738;2023-03-04T08:48:56;12.03;;;10.40;;
9413;SDS011;4746;35.664;139.738;2023-03-04T08:51:24;13.53;;;11.23;;
9413;SDS011;4746;35.664;139.738;2023-03-04T08:53:51;17.17;;;12.10;;
9413;SDS011;4746;35.664;139.738;2023-03-04T08:56:19;13.63;;;11.43;;
9413;SDS011;4746;35.664;139.738;2023-03-04T08:58:46;14.63;;;10.67;;
9413;SDS011;4746;35.664;139.738;2023-03-04T09:01:14;11.87;;;9.70;;
9413;SDS011;4746;35.664;139.738;2023-03-04T09:03:44;11.10;;;9.20;;
9413;SDS011;4746;35.664;139.738;2023-03-04T09:06:15;5.97;;;3.77;;
9413;SDS011;4746;35.664;139.738;2023-03-04T09:08:44;3.97;;;2.63;;
9413;SDS011;4746;35.664;139.738;2023-03-04T09:11:12;4.17;;;3.03;;
9413;SDS011;4746;35.664;139.738;2023-03-04T09:13:40;4.33;;;2.53;;
9413;SDS011;4746;35.664;139.738;2023-03-04T09:16:09;2.43;;;2.27;;
9413;SDS011;4746;35.664;139.738;2023-03-04T09:18:41;7.43;;;1.77;;
9413;SDS011;4746;35.664;139.738;2023-03-04T09:21:09;2.17;;;1.97;;
9413;SDS011;4746;35.664;139.738;2023-03-04T09:23:38;4.77;;;1.80;;
9413;SDS011;4746;35.664;139.738;2023-03-04T09:26:27;2.43;;;2.00;;
9413;SDS011;4746;35.664;139.738;2023-03-04T09:28:55;3.17;;;1.93;;
9413;SDS011;4746;35.664;139.738;2023-03-04T09:31:26;4.27;;;1.67;;
9413;SDS011;4746;35.664;139.738;2023-03-04T09:33:55;3.67;;;1.90;;
9413;SDS011;4746;35.664;139.738;2023-03-04T09:36:24;1.70;;;1.60;;
9413;SDS011;4746;35.664;139.738;2023-03-04T09:38:52;2.03;;;1.83;;
9413;SDS011;4746;35.664;139.738;2023-03-04T09:41:33;2.97;;;1.70;;
9413;SDS011;4746;35.664;139.738;2023-03-04T09:44:25;2.57;;;1.90;;
9413;SDS011;4746;35.664;139.738;2023-03-04T09:47:11;2.27;;;1.90;;
9413;SDS011;4746;35.664;139.738;2023-03-04T09:49:44;3.10;;;1.90;;
9413;SDS011;4746;35.664;139.738;2023-03-04T09:55:22;2.57;;;1.83;;
9413;SDS011;4746;35.664;139.738;2023-03-04T10:01:16;1.73;;;1.63;;
9413;SDS011;4746;35.664;139.738;2023-03-04T10:04:04;2.53;;;1.90;;
9413;SDS011;4746;35.664;139.738;2023-03-04T10:06:57;2.07;;;1.90;;
9413;SDS011;4746;35.664;139.738;2023-03-04T10:09:41;2.93;;;2.00;;
9413;SDS011;4746;35.664;139.738;2023-03-04T10:12:21;2.40;;;2.20;;
9413;SDS011;4746;35.664;139.738;2023-03-04T10:15:02;5.30;;;2.60;;
9413;SDS011;4746;35.664;139.738;2023-03-04T10:17:43;3.50;;;2.07;;
9413;SDS011;4746;35.664;139.738;2023-03-04T10:20:22;2.63;;;2.30;;
9413;SDS011;4746;35.664;139.738;2023-03-04T10:22:57;4.40;;;2.87;;
9413;SDS011;4746;35.664;139.738;2023-03-04T10:25:43;2.93;;;2.20;;
9413;SDS011;4746;35.664;139.738;2023-03-04T10:28:17;2.33;;;2.17;;
9413;SDS011;4746;35.664;139.738;2023-03-04T10:33:47;4.10;;;2.60;;
9413;SDS011;4746;35.664;139.738;2023-03-04T10:38:59;2.03;;;1.90;;
9413;SDS011;4746;35.664;139.738;2023-03-04T10:42:22;2.43;;;1.70;;
9413;SDS011;4746;35.664;139.738;2023-03-04T10:44:55;2.43;;;1.93;;
9413;SDS011;4746;35.664;139.738;2023-03-04T10:47:27;2.30;;;2.10;;
9413;SDS011;4746;35.664;139.738;2023-03-04T10:49:58;2.70;;;1.83;;
9413;SDS011;4746;35.664;139.738;2023-03-04T10:52:35;2.77;;;1.90;;
9413;SDS011;4746;35.664;139.738;2023-03-04T10:55:18;2.13;;;1.80;;
9413;SDS011;4746;35.664;139.738;2023-03-04T10:58:02;2.33;;;2.00;;
9413;SDS011;4746;35.664;139.738;2023-03-04T11:00:33;2.87;;;2.40;;
9413;SDS011;4746;35.664;139.738;2023-03-04T11:04:08;4.90;;;2.33;;
9413;SDS011;4746;35.664;139.738;2023-03-04T11:06:06;2.27;;;1.97;;
9413;SDS011;4746;35.664;139.738;2023-03-04T11:08:54;2.77;;;1.60;;
9413;SDS011;4746;35.664;139.738;2023-03-04T11:11:36;3.07;;;2.00;;
9413;SDS011;4746;35.664;139.738;2023-03-04T11:14:15;2.37;;;2.23;;
9413;SDS011;4746;35.664;139.738;2023-03-04T11:16:56;5.63;;;2.23;;
9413;SDS011;4746;35.664;139.738;2023-03-04T11:19:38;3.47;;;2.17;;
9413;SDS011;4746;35.664;139.738;2023-03-04T11:22:12;3.13;;;2.53;;
9413;SDS011;4746;35.664;139.738;2023-03-04T11:24:44;4.10;;;2.50;;
9413;SDS011;4746;35.664;139.738;2023-03-04T11:27:29;3.13;;;2.33;;
9413;SDS011;4746;35.664;139.738;2023-03-04T11:38:55;4.23;;;2.40;;
9413;SDS011;4746;35.664;139.738;2023-03-04T11:44:04;5.17;;;2.80;;
9413;SDS011;4746;35.664;139.738;2023-03-04T11:49:48;5.47;;;2.30;;
9413;SDS011;4746;35.664;139.738;2023-03-04T12:02:40;3.73;;;2.83;;
9413;SDS011;4746;35.664;139.738;2023-03-04T12:11:37;2.87;;;2.57;;
9413;SDS011;4746;35.664;139.738;2023-03-04T12:14:22;3.53;;;2.60;;
9413;SDS011;4746;35.664;139.738;2023-03-04T12:23:02;3.83;;;2.77;;
9413;SDS011;4746;35.664;139.738;2023-03-04T12:31:42;2.90;;;2.47;;
9413;SDS011;4746;35.664;139.738;2023-03-04T12:34:32;3.73;;;2.77;;
9413;SDS011;4746;35.664;139.738;2023-03-04T12:37:28;6.43;;;3.10;;
9413;SDS011;4746;35.664;139.738;2023-03-04T12:40:48;3.57;;;2.60;;
9413;SDS011;4746;35.664;139.738;2023-03-04T12:46:17;4.47;;;2.80;;
9413;SDS011;4746;35.664;139.738;2023-03-04T12:49:02;3.27;;;2.97;;
9413;SDS011;4746;35.664;139.738;2023-03-04T12:52:20;3.27;;;2.73;;
9413;SDS011;4746;35.664;139.738;2023-03-04T12:55:13;4.63;;;2.83;;
9413;SDS011;4746;35.664;139.738;2023-03-04T12:57:49;3.80;;;3.10;;
9413;SDS011;4746;35.664;139.738;2023-03-04T13:03:11;5.20;;;2.93;;
9413;SDS011;4746;35.664;139.738;2023-03-04T13:11:38;4.13;;;3.13;;
9413;SDS011;4746;35.664;139.738;2023-03-04T13:14:30;4.50;;;2.90;;
9413;SDS011;4746;35.664;139.738;2023-03-04T13:17:00;3.90;;;3.00;;
9413;SDS011;4746;35.664;139.738;2023-03-04T13:31:06;4.73;;;2.97;;
9413;SDS011;4746;35.664;139.738;2023-03-04T13:36:52;3.53;;;2.87;;
9413;SDS011;4746;35.664;139.738;2023-03-04T13:41:53;6.23;;;3.23;;
9413;SDS011;4746;35.664;139.738;2023-03-04T13:47:13;3.50;;;3.20;;
9413;SDS011;4746;35.664;139.738;2023-03-04T13:49:45;5.30;;;3.07;;
9413;SDS011;4746;35.664;139.738;2023-03-04T13:58:22;3.63;;;3.33;;
9413;SDS011;4746;35.664;139.738;2023-03-04T14:00:53;4.77;;;3.60;;
9413;SDS011;4746;35.664;139.738;2023-03-04T14:03:23;4.60;;;2.80;;
9413;SDS011;4746;35.664;139.738;2023-03-04T14:08:45;6.87;;;3.47;;
9413;SDS011;4746;35.664;139.738;2023-03-04T14:11:25;5.90;;;3.50;;
9413;SDS011;4746;35.664;139.738;2023-03-04T14:14:03;4.67;;;3.60;;
9413;SDS011;4746;35.664;139.738;2023-03-04T14:16:38;4.00;;;3.60;;
9413;SDS011;4746;35.664;139.738;2023-03-04T14:19:43;8.43;;;3.50;;
9413;SDS011;4746;35.664;139.738;2023-03-04T14:22:18;3.40;;;3.10;;
9413;SDS011;4746;35.664;139.738;2023-03-04T14:25:43;4.07;;;3.77;;
9413;SDS011;4746;35.664;139.738;2023-03-04T14:27:49;4.33;;;3.93;;
9413;SDS011;4746;35.664;139.738;2023-03-04T14:30:42;5.13;;;4.00;;
9413;SDS011;4746;35.664;139.738;2023-03-04T14:33:28;4.77;;;3.50;;
9413;SDS011;4746;35.664;139.738;2023-03-04T14:35:57;5.33;;;3.90;;
9413;SDS011;4746;35.664;139.738;2023-03-04T14:38:28;4.43;;;3.90;;
9413;SDS011;4746;35.664;139.738;2023-03-04T14:41:06;3.93;;;3.63;;
9413;SDS011;4746;35.664;139.738;2023-03-04T14:43:54;5.10;;;4.10;;
9413;SDS011;4746;35.664;139.738;2023-03-04T14:46:52;5.23;;;3.70;;
9413;SDS011;4746;35.664;139.738;2023-03-04T14:49:46;3.30;;;3.10;;
9413;SDS011;4746;35.664;139.738;2023-03-04T14:57:41;7.30;;;4.17;;
9413;SDS011;4746;35.664;139.738;2023-03-04T15:03:14;4.33;;;3.93;;
9413;SDS011;4746;35.664;139.738;2023-03-04T15:05:53;5.13;;;4.10;;
9413;SDS011;4746;35.664;139.738;2023-03-04T15:08:34;4.03;;;3.63;;
9413;SDS011;4746;35.664;139.738;2023-03-04T15:11:04;6.17;;;4.37;;
9413;SDS011;4746;35.664;139.738;2023-03-04T15:13:40;6.03;;;4.17;;
9413;SDS011;4746;35.664;139.738;2023-03-04T15:16:12;5.90;;;4.40;;
9413;SDS011;4746;35.664;139.738;2023-03-04T15:21:30;4.47;;;3.97;;
9413;SDS011;4746;35.664;139.738;2023-03-04T15:24:02;4.10;;;3.67;;
9413;SDS011;4746;35.664;139.738;2023-03-04T15:26:31;4.43;;;3.73;;
9413;SDS011;4746;35.664;139.738;2023-03-04T15:29:12;6.30;;;4.50;;
9413;SDS011;4746;35.664;139.738;2023-03-04T15:31:42;4.77;;;4.20;;
9413;SDS011;4746;35.664;139.738;2023-03-04T15:34:13;5.37;;;4.60;;
9413;SDS011;4746;35.664;139.738;2023-03-04T15:36:44;4.47;;;4.07;;
9413;SDS011;4746;35.664;139.738;2023-03-04T15:39:16;4.70;;;4.00;;
9413;SDS011;4746;35.664;139.738;2023-03-04T15:41:47;6.47;;;4.77;;
9413;SDS011;4746;35.664;139.738;2023-03-04T15:44:15;5.97;;;4.47;;
9413;SDS011;4746;35.664;139.738;2023-03-04T15:46:42;7.40;;;4.37;;
9413;SDS011;4746;35.664;139.738;2023-03-04T15:49:10;6.87;;;4.10;;
9413;SDS011;4746;35.664;139.738;2023-03-04T15:51:38;7.97;;;4.17;;
9413;SDS011;4746;35.664;139.738;2023-03-04T15:54:06;5.83;;;4.23;;
9413;SDS011;4746;35.664;139.738;2023-03-04T15:56:38;5.57;;;4.87;;
9413;SDS011;4746;35.664;139.738;2023-03-04T15:59:10;8.23;;;4.50;;
9413;SDS011;4746;35.664;139.738;2023-03-04T16:01:40;5.13;;;3.83;;
9413;SDS011;4746;35.664;139.738;2023-03-04T16:04:12;4.73;;;3.90;;
9413;SDS011;4746;35.664;139.738;2023-03-04T16:06:42;5.83;;;3.90;;
9413;SDS011;4746;35.664;139.738;2023-03-04T16:09:14;4.80;;;3.80;;
9413;SDS011;4746;35.664;139.738;2023-03-04T16:11:46;7.27;;;3.70;;
9413;SDS011;4746;35.664;139.738;2023-03-04T16:14:14;5.47;;;4.10;;
9413;SDS011;4746;35.664;139.738;2023-03-04T16:16:42;5.50;;;3.93;;
9413;SDS011;4746;35.664;139.738;2023-03-04T16:19:11;5.63;;;3.73;;
9413;SDS011;4746;35.664;139.738;2023-03-04T16:21:38;4.73;;;3.73;;
9413;SDS011;4746;35.664;139.738;2023-03-04T16:24:09;8.40;;;4.03;;
9413;SDS011;4746;35.664;139.738;2023-03-04T16:26:44;4.07;;;3.67;;
9413;SDS011;4746;35.664;139.738;2023-03-04T16:29:14;5.43;;;3.53;;
9413;SDS011;4746;35.664;139.738;2023-03-04T16:31:42;5.87;;;4.53;;
9413;SDS011;4746;35.664;139.738;2023-03-04T16:34:09;6.10;;;4.20;;
9413;SDS011;4746;35.664;139.738;2023-03-04T16:36:37;6.57;;;3.80;;
9413;SDS011;4746;35.664;139.738;2023-03-04T16:39:06;4.17;;;3.50;;
9413;SDS011;4746;35.664;139.738;2023-03-04T16:41:45;4.20;;;3.33;;
9413;SDS011;4746;35.664;139.738;2023-03-04T16:44:12;5.87;;;4.30;;
9413;SDS011;4746;35.664;139.738;2023-03-04T16:46:40;7.63;;;4.87;;
9413;SDS011;4746;35.664;139.738;2023-03-04T16:49:08;5.70;;;4.90;;
9413;SDS011;4746;35.664;139.738;2023-03-04T16:51:39;7.73;;;4.67;;
9413;SDS011;4746;35.664;139.738;2023-03-04T16:54:13;5.80;;;4.20;;
9413;SDS011;4746;35.664;139.738;2023-03-04T16:56:50;6.13;;;4.80;;
9413;SDS011;4746;35.664;139.738;2023-03-04T16:59:18;6.57;;;4.20;;